Time;durP1;ratioP1;P1;durP2;ratioP2;P2;SDS_P1;SDS_P2;PMS_P1;PMS_P2;Temp;Humidity;BMP_temperature;BMP_pressure;BME280_temperature;BME280_humidity;BME280_pressure;Samples;Min_cycle;Max_cycle;Signal;HPM_P1;HPM_P2
2023/03/21 00:00:21;;;;;;;;;;;;;;;9.11;100.00;100440.72;5038202;28;20102;-79
2023/03/21 00:02:46;;;;;;;;;;;;;;;9.10;100.00;100429.84;5035438;28;19915;-78
2023/03/21 00:05:12;;;;;;;;;;;;;;;9.09;100.00;100426.19;5035337;28;19909;-77
2023/03/21 00:07:39;;;;;;;;;;;;;;;9.09;100.00;100428.25;5036024;28;19909;-78
2023/03/21 00:10:06;;;;;;;;;;;;;;;9.10;100.00;100419.19;5039321;28;19937;-79
2023/03/21 00:12:36;;;;;;;;;;;;;;;9.12;100.00;100425.22;5039865;28;20007;-79
2023/03/21 00:15:07;;;;;;;;;;;;;;;9.13;100.00;100420.31;5045123;28;19913;-78
2023/03/21 00:17:33;;;;;;;;;;;;;;;9.14;100.00;100419.03;5046700;28;19913;-78
2023/03/21 00:19:59;;;;;;;;;;;;;;;9.12;100.00;100415.88;5046650;28;19977;-78
2023/03/21 00:22:25;;;;;;;;;;;;;;;9.11;100.00;100405.72;5048654;28;19905;-78
2023/03/21 00:25:07;;;;;;;;;;;;;;;9.10;100.00;100413.50;5049494;28;20362;-78
2023/03/21 00:27:39;;;;;;;;;;;;;;;9.09;100.00;100408.28;5046000;28;19933;-79
2023/03/21 00:30:05;;;;;;;;;;;;;;;9.05;100.00;100405.59;5043150;28;20328;-78
2023/03/21 00:32:32;;;;;;;;;;;;;;;9.00;100.00;100397.69;5042500;28;19909;-78
2023/03/21 00:34:58;;;;;;;;;;;;;;;9.02;100.00;100398.00;5043068;28;20331;-78
2023/03/21 00:37:24;;;;;;;;;;;;;;;8.99;100.00;100401.84;5043609;28;20266;-79
2023/03/21 00:39:52;;;;;;;;;;;;;;;8.98;100.00;100399.47;5044751;28;19909;-78
2023/03/21 00:42:18;;;;;;;;;;;;;;;8.98;100.00;100402.31;5044442;28;19909;-78
2023/03/21 00:44:44;;;;;;;;;;;;;;;8.99;100.00;100395.34;5045042;28;19913;-79
2023/03/21 00:47:11;;;;;;;;;;;;;;;8.97;100.00;100397.88;5044966;28;19978;-78
2023/03/21 00:49:38;;;;;;;;;;;;;;;8.97;100.00;100398.66;5042393;28;19940;-77
2023/03/21 00:52:05;;;;;;;;;;;;;;;8.95;100.00;100395.53;5041673;28;19917;-79
2023/03/21 00:54:36;;;;;;;;;;;;;;;8.95;100.00;100394.72;5040773;28;19913;-79
2023/03/21 00:57:01;;;;;;;;;;;;;;;8.94;100.00;100393.94;5043125;28;19912;-78
2023/03/21 00:59:27;;;;;;;;;;;;;;;8.97;100.00;100395.03;5047219;28;19909;-79
2023/03/21 01:01:54;;;;;;;;;;;;;;;8.99;100.00;100393.28;5043482;28;19976;-79
2023/03/21 01:04:33;;;;;;;;;;;;;;;9.00;100.00;100392.00;5043349;28;19920;-79
2023/03/21 01:06:59;;;;;;;;;;;;;;;9.01;100.00;100390.72;5043576;28;20256;-79
2023/03/21 01:09:25;;;;;;;;;;;;;;;9.06;100.00;100394.97;5041055;28;20431;-78
2023/03/21 01:11:52;;;;;;;;;;;;;;;9.10;100.00;100402.09;5038005;28;20355;-79
2023/03/21 01:14:18;;;;;;;;;;;;;;;9.19;100.00;100402.09;5036429;28;19909;-78
2023/03/21 01:16:45;;;;;;;;;;;;;;;9.25;100.00;100414.38;5036474;28;19920;-79
2023/03/21 01:19:15;;;;;;;;;;;;;;;9.23;100.00;100405.53;5051151;28;19973;-78
2023/03/21 01:21:42;;;;;;;;;;;;;;;9.20;100.00;100405.69;5054951;28;19995;-78
2023/03/21 01:24:08;;;;;;;;;;;;;;;9.14;100.00;100407.66;5057904;28;19912;-77
2023/03/21 01:26:36;;;;;;;;;;;;;;;9.06;100.00;100398.63;5057829;28;19913;-79
2023/03/21 01:29:06;;;;;;;;;;;;;;;9.02;100.00;100391.53;5054337;28;19922;-78
2023/03/21 01:31:32;;;;;;;;;;;;;;;8.99;100.00;100390.44;5055335;28;20301;-78
2023/03/21 01:34:03;;;;;;;;;;;;;;;8.96;100.00;100388.53;5057297;28;19917;-78
2023/03/21 01:36:29;;;;;;;;;;;;;;;8.96;100.00;100374.28;5057719;28;20013;-78
2023/03/21 01:39:08;;;;;;;;;;;;;;;8.95;100.00;100384.13;5057762;28;19909;-79
2023/03/21 01:41:40;;;;;;;;;;;;;;;8.95;100.00;100378.41;5057321;28;19909;-77
2023/03/21 01:44:06;;;;;;;;;;;;;;;8.92;100.00;100370.03;5056590;28;20312;-79
2023/03/21 01:46:40;;;;;;;;;;;;;;;8.90;100.00;100372.56;5055179;28;19908;-78
2023/03/21 01:49:07;;;;;;;;;;;;;;;8.90;100.00;100366.88;5058029;28;19999;-77
2023/03/21 01:51:37;;;;;;;;;;;;;;;8.87;100.00;100365.75;5055849;28;19939;-77
2023/03/21 01:54:05;;;;;;;;;;;;;;;8.88;100.00;100373.03;5055005;28;19966;-77
2023/03/21 01:56:32;;;;;;;;;;;;;;;8.82;100.00;100375.75;5058155;28;19919;-78
2023/03/21 01:59:02;;;;;;;;;;;;;;;8.80;100.00;100371.81;5060979;28;19912;-79
2023/03/21 02:01:30;;;;;;;;;;;;;;;8.80;100.00;100368.97;5062389;28;19908;-78
2023/03/21 02:03:56;;;;;;;;;;;;;;;8.76;100.00;100374.81;5057957;28;19913;-79
2023/03/21 02:06:23;;;;;;;;;;;;;;;8.72;100.00;100379.09;5057682;28;19930;-79
2023/03/21 02:08:50;;;;;;;;;;;;;;;8.63;100.00;100381.97;5049619;28;19909;-78
2023/03/21 02:11:16;;;;;;;;;;;;;;;8.57;100.00;100375.31;5065222;28;19976;-79
2023/03/21 02:13:42;;;;;;;;;;;;;;;8.63;100.00;100381.97;5058944;28;19908;-78
2023/03/21 02:16:07;;;;;;;;;;;;;;;8.62;100.00;100383.22;5055555;28;19919;-78
2023/03/21 02:18:57;;;;;;;;;;;;;;;8.53;100.00;100389.75;5054814;28;19916;-78
2023/03/21 02:21:31;;;;;;;;;;;;;;;8.49;100.00;100388.31;5056423;28;19909;-78
2023/03/21 02:24:16;;;;;;;;;;;;;;;8.51;100.00;100386.56;5059454;28;19945;-78
2023/03/21 02:26:44;;;;;;;;;;;;;;;8.48;100.00;100387.53;5059843;28;20251;-78
2023/03/21 02:29:12;;;;;;;;;;;;;;;8.44;100.00;100397.50;5056817;28;19908;-79
2023/03/21 02:31:48;;;;;;;;;;;;;;;8.40;100.00;100383.44;5054411;28;19908;-78
2023/03/21 02:34:14;;;;;;;;;;;;;;;8.44;100.00;100384.06;5057364;28;19909;-78
2023/03/21 02:36:42;;;;;;;;;;;;;;;8.46;100.00;100390.06;5056703;28;19936;-79
2023/03/21 02:39:17;;;;;;;;;;;;;;;8.46;100.00;100383.59;5057447;28;20258;-78
2023/03/21 02:42:02;;;;;;;;;;;;;;;8.45;100.00;100385.66;5038752;28;19924;-78
2023/03/21 02:44:35;;;;;;;;;;;;;;;8.48;100.00;100384.69;5059312;28;19904;-77
2023/03/21 02:47:01;;;;;;;;;;;;;;;8.46;100.00;100392.13;5066044;28;19912;-76
2023/03/21 02:49:42;;;;;;;;;;;;;;;8.50;100.00;100381.38;5069310;28;20272;-77
2023/03/21 02:52:08;;;;;;;;;;;;;;;8.47;100.00;100383.09;5058373;28;20262;-77
2023/03/21 02:54:34;;;;;;;;;;;;;;;8.51;100.00;100397.19;5061556;28;19938;-78
2023/03/21 02:57:06;;;;;;;;;;;;;;;8.49;100.00;100391.97;5065065;28;19908;-78
2023/03/21 02:59:31;;;;;;;;;;;;;;;8.49;100.00;100394.03;5064518;28;19955;-77
2023/03/21 03:01:57;;;;;;;;;;;;;;;8.51;100.00;100395.09;5061489;28;19909;-77
2023/03/21 03:04:26;;;;;;;;;;;;;;;8.51;100.00;100392.25;5060863;28;19917;-77
2023/03/21 03:07:02;;;;;;;;;;;;;;;8.53;100.00;100394.66;5058301;28;20392;-78
2023/03/21 03:09:52;;;;;;;;;;;;;;;8.55;100.00;100395.75;5057109;28;19909;-77
2023/03/21 03:12:21;;;;;;;;;;;;;;;8.57;100.00;100383.88;5063794;28;19909;-78
2023/03/21 03:15:03;;;;;;;;;;;;;;;8.55;100.00;100395.75;5063809;28;19916;-78
2023/03/21 03:17:54;;;;;;;;;;;;;;;8.51;100.00;100394.34;5061589;28;19916;-78
2023/03/21 03:20:26;;;;;;;;;;;;;;;8.50;100.00;100398.47;5064075;28;19972;-77
2023/03/21 03:22:55;;;;;;;;;;;;;;;8.49;100.00;100399.72;5067535;28;19998;-78
2023/03/21 03:25:27;;;;;;;;;;;;;;;8.48;100.00;100404.63;5067013;28;19909;-78
2023/03/21 03:27:53;;;;;;;;;;;;;;;8.46;100.00;100394.97;5066244;28;19915;-78
2023/03/21 03:30:18;;;;;;;;;;;;;;;8.42;100.00;100402.88;5045546;28;20015;-79
2023/03/21 03:32:46;;;;;;;;;;;;;;;8.41;100.00;100402.09;5037751;28;19970;-78
2023/03/21 03:35:16;;;;;;;;;;;;;;;8.40;100.00;100400.53;5053850;28;19919;-77
2023/03/21 03:37:41;;;;;;;;;;;;;;;8.41;100.00;100407.00;5055842;28;19908;-78
2023/03/21 03:40:18;;;;;;;;;;;;;;;8.43;100.00;100407.31;5057529;28;19993;-79
2023/03/21 03:42:52;;;;;;;;;;;;;;;8.41;100.00;100404.16;5061056;28;19916;-78
2023/03/21 03:45:28;;;;;;;;;;;;;;;8.37;100.00;100399.41;5065538;28;19999;-78
2023/03/21 03:47:54;;;;;;;;;;;;;;;8.37;100.00;100402.25;5064652;28;19908;-78
2023/03/21 03:50:29;;;;;;;;;;;;;;;8.37;100.00;100405.09;5068880;28;19923;-79
2023/03/21 03:52:56;;;;;;;;;;;;;;;8.36;100.00;100400.66;5070807;28;19920;-78
2023/03/21 03:55:22;;;;;;;;;;;;;;;8.37;100.00;100401.47;5056233;28;20007;-79
2023/03/21 03:57:48;;;;;;;;;;;;;;;8.35;100.00;100404.81;5072881;28;19909;-78
2023/03/21 04:00:17;;;;;;;;;;;;;;;8.34;100.00;100403.22;5072227;28;19919;-80
2023/03/21 04:02:43;;;;;;;;;;;;;;;8.37;100.00;100421.38;5062616;28;19908;-78
2023/03/21 04:05:10;;;;;;;;;;;;;;;8.38;100.00;100411.59;5058051;28;19920;-78
2023/03/21 04:07:37;;;;;;;;;;;;;;;8.38;100.00;100414.44;5067945;28;19915;-78
2023/03/21 04:10:02;;;;;;;;;;;;;;;8.39;100.00;100425.34;5068885;28;19931;-79
2023/03/21 04:12:28;;;;;;;;;;;;;;;8.39;100.00;100421.72;5069977;28;19908;-77
2023/03/21 04:14:53;;;;;;;;;;;;;;;8.39;100.00;100422.50;5067739;28;19972;-78
2023/03/21 04:17:19;;;;;;;;;;;;;;;8.41;100.00;100409.84;5062682;28;19977;-79
2023/03/21 04:19:45;;;;;;;;;;;;;;;8.41;100.00;100424.84;5058889;28;19919;-78
2023/03/21 04:22:12;;;;;;;;;;;;;;;8.38;100.00;100425.81;5060369;28;19909;-78
2023/03/21 04:24:38;;;;;;;;;;;;;;;8.36;100.00;100422.69;5057847;28;20334;-78
2023/03/21 04:27:04;;;;;;;;;;;;;;;8.33;100.00;100427.25;5057367;28;20267;-78
2023/03/21 04:29:31;;;;;;;;;;;;;;;8.34;100.00;100420.28;5058152;28;20431;-78
2023/03/21 04:31:57;;;;;;;;;;;;;;;8.33;100.00;100423.59;5055546;28;20002;-78
2023/03/21 04:34:26;;;;;;;;;;;;;;;8.34;100.00;100425.19;5057843;28;19912;-78
2023/03/21 04:36:53;;;;;;;;;;;;;;;8.37;100.00;100419.34;5057156;28;20367;-77
2023/03/21 04:39:19;;;;;;;;;;;;;;;8.36;100.00;100426.28;5055417;28;20369;-82
2023/03/21 04:41:46;;;;;;;;;;;;;;;8.38;100.00;100422.97;5038605;28;19909;-81
2023/03/21 04:44:12;;;;;;;;;;;;;;;8.36;100.00;100425.53;5054925;28;20291;-82
2023/03/21 04:46:39;;;;;;;;;;;;;;;8.34;100.00;100428.84;5038293;28;19913;-81
2023/03/21 04:49:10;;;;;;;;;;;;;;;8.33;100.00;100427.25;5038242;28;19917;-81
2023/03/21 04:51:36;;;;;;;;;;;;;;;8.35;100.00;100432.47;5038667;28;19931;-82
2023/03/21 04:54:05;;;;;;;;;;;;;;;8.36;100.00;100431.97;5054496;28;19921;-82
2023/03/21 04:56:35;;;;;;;;;;;;;;;8.37;100.00;100422.19;5056289;28;19956;-81
2023/03/21 04:59:20;;;;;;;;;;;;;;;8.38;100.00;100431.50;5054614;28;19959;-83
2023/03/21 05:01:45;;;;;;;;;;;;;;;8.35;100.00;100424.72;5055440;28;19954;-82
2023/03/21 05:04:26;;;;;;;;;;;;;;;8.34;100.00;100431.69;5037760;28;20011;-81
2023/03/21 05:06:52;;;;;;;;;;;;;;;8.36;100.00;100422.69;5053990;28;19913;-83
2023/03/21 05:09:19;;;;;;;;;;;;;;;8.37;100.00;100427.09;5055099;28;20074;-82
2023/03/21 05:11:44;;;;;;;;;;;;;;;8.40;100.00;100434.69;5036632;28;19913;-83
2023/03/21 05:14:10;;;;;;;;;;;;;;;8.37;100.00;100436.41;5054089;28;20226;-81
2023/03/21 05:16:47;;;;;;;;;;;;;;;8.39;100.00;100433.91;5032084;28;19913;-82
2023/03/21 05:19:13;;;;;;;;;;;;;;;8.39;100.00;100436.75;5033258;28;19948;-82
2023/03/21 05:21:43;;;;;;;;;;;;;;;8.30;100.00;100418.88;5034300;28;19952;-82
2023/03/21 05:24:13;;;;;;;;;;;;;;;8.44;100.00;100440.22;5032537;28;19909;-83
2023/03/21 05:26:49;;;;;;;;;;;;;;;8.47;100.00;100439.25;5039221;28;19909;-81
2023/03/21 05:29:14;;;;;;;;;;;;;;;8.46;100.00;100440.53;5039683;28;19972;-82
2023/03/21 05:31:41;;;;;;;;;;;;;;;8.45;100.00;100439.75;5050061;28;19948;-82
2023/03/21 05:34:09;;;;;;;;;;;;;;;8.48;100.00;100449.38;5034378;28;19920;-83
2023/03/21 05:36:35;;;;;;;;;;;;;;;8.50;100.00;100447.66;5052194;28;19995;-81
2023/03/21 05:39:00;;;;;;;;;;;;;;;8.56;100.00;100453.53;5041288;28;20342;-81
2023/03/21 05:41:26;;;;;;;;;;;;;;;8.57;100.00;100455.06;5034679;28;19916;-81
2023/03/21 05:43:51;;;;;;;;;;;;;;;8.61;100.00;100445.09;5039602;28;20416;-81
2023/03/21 05:46:17;;;;;;;;;;;;;;;8.62;100.00;100448.75;5055295;28;19959;-82
2023/03/21 05:48:44;;;;;;;;;;;;;;;8.66;100.00;100460.75;5034167;28;19976;-81
2023/03/21 05:51:10;;;;;;;;;;;;;;;8.69;100.00;100454.13;5035004;28;19920;-76
2023/03/21 05:53:36;;;;;;;;;;;;;;;8.76;100.00;100453.78;5034368;28;19924;-77
2023/03/21 05:56:03;;;;;;;;;;;;;;;8.88;100.00;100449.97;5034844;28;19971;-76
2023/03/21 05:58:30;;;;;;;;;;;;;;;8.92;100.00;100462.00;5035034;28;19916;-77
2023/03/21 06:00:55;;;;;;;;;;;;;;;8.92;100.00;100456.31;5034841;28;19924;-78
2023/03/21 06:03:22;;;;;;;;;;;;;;;8.95;100.00;100460.28;5033222;28;19916;-78
2023/03/21 06:05:48;;;;;;;;;;;;;;;8.96;100.00;100471.19;5032767;28;19916;-78
2023/03/21 06:08:14;;;;;;;;;;;;;;;8.99;100.00;100472.28;5034040;28;20389;-77
2023/03/21 06:10:40;;;;;;;;;;;;;;;9.02;100.00;100460.72;5029967;28;19962;-76
2023/03/21 06:13:07;;;;;;;;;;;;;;;9.05;100.00;100454.03;5034572;28;19909;-78
2023/03/21 06:15:33;;;;;;;;;;;;;;;9.07;100.00;100460.06;5033759;28;19917;-76
2023/03/21 06:17:59;;;;;;;;;;;;;;;9.12;100.00;100461.50;5033823;28;20350;-74
2023/03/21 06:20:25;;;;;;;;;;;;;;;9.13;100.00;100463.06;5034357;28;19967;-74
2023/03/21 06:22:51;;;;;;;;;;;;;;;9.18;100.00;100465.28;5034028;28;19913;-74
2023/03/21 06:25:17;;;;;;;;;;;;;;;9.23;100.00;100461.78;5034410;28;19996;-74
2023/03/21 06:27:43;;;;;;;;;;;;;;;9.32;100.00;100460.94;5034282;28;19967;-74
2023/03/21 06:30:11;;;;;;;;;;;;;;;9.38;100.00;100467.59;5032648;28;19908;-74
2023/03/21 06:32:37;;;;;;;;;;;;;;;9.41;100.00;100467.41;5032714;28;19909;-75
2023/03/21 06:35:03;;;;;;;;;;;;;;;9.49;100.00;100462.16;5033886;28;19920;-74
2023/03/21 06:37:30;;;;;;;;;;;;;;;9.48;100.00;100457.72;5032646;28;19909;-74
2023/03/21 06:39:56;;;;;;;;;;;;;;;9.50;100.00;100466.56;5014827;28;20049;-75
2023/03/21 06:42:28;;;;;;;;;;;;;;;9.60;100.00;100465.25;5032544;28;19916;-74
2023/03/21 06:44:55;;;;;;;;;;;;;;;9.69;100.00;100471.72;5032905;28;19912;-73
2023/03/21 06:47:20;;;;;;;;;;;;;;;9.82;100.00;100468.69;5032707;28;19909;-75
2023/03/21 06:49:45;;;;;;;;;;;;;;;9.96;100.00;100467.97;5032781;28;20016;-75
2023/03/21 06:52:14;;;;;;;;;;;;;;;10.09;100.00;100471.38;5032455;28;20012;-76
2023/03/21 06:54:41;;;;;;;;;;;;;;;10.19;100.00;100477.00;5033659;28;20003;-74
2023/03/21 06:57:07;;;;;;;;;;;;;;;10.25;100.00;100477.94;5033638;28;19913;-74
2023/03/21 06:59:35;;;;;;;;;;;;;;;10.25;100.00;100475.88;5032481;28;20016;-75
2023/03/21 07:02:01;;;;;;;;;;;;;;;10.26;100.00;100480.31;5032033;28;20377;-75
2023/03/21 07:04:27;;;;;;;;;;;;;;;10.27;100.00;100484.75;5032101;28;19915;-75
2023/03/21 07:06:54;;;;;;;;;;;;;;;10.28;100.00;100482.69;5032048;28;19909;-75
2023/03/21 07:09:23;;;;;;;;;;;;;;;10.26;100.00;100486.03;5032415;28;19909;-76
2023/03/21 07:11:52;;;;;;;;;;;;;;;10.26;100.00;100483.16;5032104;28;19971;-75
2023/03/21 07:14:17;;;;;;;;;;;;;;;10.23;100.00;100489.88;5031855;28;19908;-75
2023/03/21 07:16:44;;;;;;;;;;;;;;;10.20;100.00;100482.25;5032302;28;20313;-75
2023/03/21 07:19:09;;;;;;;;;;;;;;;10.22;100.00;100481.78;5033537;28;20303;-75
2023/03/21 07:21:34;;;;;;;;;;;;;;;10.16;100.00;100478.00;5033290;28;19954;-75
2023/03/21 07:24:00;;;;;;;;;;;;;;;10.14;100.00;100484.19;5033337;28;19986;-75
2023/03/21 07:26:26;;;;;;;;;;;;;;;10.10;100.00;100489.28;5033135;28;20255;-75
2023/03/21 07:28:52;;;;;;;;;;;;;;;10.06;100.00;100491.53;5033335;28;19975;-75
2023/03/21 07:31:19;;;;;;;;;;;;;;;10.08;100.00;100492.66;5033069;28;19909;-76
2023/03/21 07:33:59;;;;;;;;;;;;;;;10.00;100.00;100487.75;5033520;28;20261;-75
2023/03/21 07:36:26;;;;;;;;;;;;;;;9.85;100.00;100501.16;5032652;28;20274;-75
2023/03/21 07:38:53;;;;;;;;;;;;;;;9.74;100.00;100496.00;5033010;28;19958;-75
2023/03/21 07:41:19;;;;;;;;;;;;;;;9.64;100.00;100497.28;5015294;28;19909;-75
2023/03/21 07:43:44;;;;;;;;;;;;;;;9.57;100.00;100500.47;5032987;28;19913;-76
2023/03/21 07:46:11;;;;;;;;;;;;;;;9.50;100.00;100497.94;5031576;28;20086;-74
2023/03/21 07:48:37;;;;;;;;;;;;;;;9.51;100.00;100503.19;5015164;28;19962;-73
2023/03/21 07:51:02;;;;;;;;;;;;;;;9.56;100.00;100508.25;5015089;28;19916;-74
2023/03/21 07:53:29;;;;;;;;;;;;;;;9.65;100.00;100504.56;5032576;28;19917;-74
2023/03/21 07:55:55;;;;;;;;;;;;;;;9.70;100.00;100504.69;5032444;28;19913;-75
2023/03/21 07:58:23;;;;;;;;;;;;;;;9.70;100.00;100504.69;5032173;28;19971;-75
2023/03/21 08:00:49;;;;;;;;;;;;;;;9.69;100.00;100522.31;5031448;28;19952;-74
2023/03/21 08:03:14;;;;;;;;;;;;;;;9.63;100.00;100512.81;5015249;28;19985;-75
2023/03/21 08:05:43;;;;;;;;;;;;;;;9.62;100.00;100516.94;5031176;28;19917;-74
2023/03/21 08:08:09;;;;;;;;;;;;;;;9.62;100.00;100514.88;5032928;28;19987;-74
2023/03/21 08:10:35;;;;;;;;;;;;;;;9.60;100.00;100519.47;5031525;28;20333;-74
2023/03/21 08:13:00;;;;;;;;;;;;;;;9.56;100.00;100528.22;5031308;28;19913;-76
2023/03/21 08:15:26;;;;;;;;;;;;;;;9.60;100.00;100519.47;5032632;28;20003;-75
2023/03/21 08:17:51;;;;;;;;;;;;;;;9.65;100.00;100516.75;5032875;28;20024;-76
2023/03/21 08:20:20;;;;;;;;;;;;;;;9.66;100.00;100526.91;5032851;28;20405;-74
2023/03/21 08:23:00;;;;;;;;;;;;;;;9.81;100.00;100521.31;5031327;28;19963;-74
2023/03/21 08:25:26;;;;;;;;;;;;;;;9.98;100.00;100525.38;5032442;28;19909;-74
2023/03/21 08:27:52;;;;;;;;;;;;;;;10.17;100.00;100519.56;5032700;28;19971;-74
2023/03/21 08:30:22;;;;;;;;;;;;;;;10.33;100.00;100525.66;5034297;28;19912;-75
2023/03/21 08:32:49;;;;;;;;;;;;;;;10.65;100.00;100517.47;5034829;28;19924;-74
2023/03/21 08:35:15;;;;;;;;;;;;;;;10.97;100.00;100522.28;5018182;28;19932;-75
2023/03/21 08:37:41;;;;;;;;;;;;;;;11.30;100.00;100525.81;5018238;28;19913;-75
2023/03/21 08:40:12;;;;;;;;;;;;;;;11.61;100.00;100519.59;5034789;28;19962;-75
2023/03/21 08:42:39;;;;;;;;;;;;;;;11.88;100.00;100518.44;5036084;28;19909;-75
2023/03/21 08:45:05;;;;;;;;;;;;;;;12.05;100.00;100521.56;5018227;28;20386;-75
2023/03/21 08:47:31;;;;;;;;;;;;;;;12.18;100.00;100528.53;5034937;28;19908;-76
2023/03/21 08:49:58;;;;;;;;;;;;;;;12.25;100.00;100531.00;5036112;28;19920;-76
2023/03/21 08:52:25;;;;;;;;;;;;;;;12.30;100.00;100525.84;5035738;28;19917;-76
2023/03/21 08:55:17;;;;;;;;;;;;;;;12.38;100.00;100524.94;5034778;28;20360;-75
2023/03/21 08:57:43;;;;;;;;;;;;;;;12.52;100.00;100529.03;5033655;28;20000;-78
2023/03/21 09:00:15;;;;;;;;;;;;;;;12.65;100.00;100527.38;5034198;28;19913;-77
2023/03/21 09:02:47;;;;;;;;;;;;;;;12.78;100.00;100529.09;5034504;28;19913;-77
2023/03/21 09:05:15;;;;;;;;;;;;;;;12.90;100.00;100530.81;5034582;28;19913;-74
2023/03/21 09:07:41;;;;;;;;;;;;;;;12.95;100.00;100528.00;5035805;28;19916;-74
2023/03/21 09:10:07;;;;;;;;;;;;;;;12.98;100.00;100529.88;5034885;28;19908;-74
2023/03/21 09:12:34;;;;;;;;;;;;;;;13.11;100.00;100529.47;5034760;28;19963;-74
2023/03/21 09:15:01;;;;;;;;;;;;;;;13.11;100.00;100535.22;5034549;28;19908;-74
2023/03/21 09:17:28;;;;;;;;;;;;;;;13.08;100.00;100534.16;5034641;28;20000;-75
2023/03/21 09:19:53;;;;;;;;;;;;;;;13.14;100.00;100534.22;5034941;28;19993;-75
2023/03/21 09:22:20;;;;;;;;;;;;;;;13.15;100.00;100530.03;5034389;28;19909;-74
2023/03/21 09:24:47;;;;;;;;;;;;;;;12.93;100.00;100507.66;5034378;28;19920;-74
2023/03/21 09:27:16;;;;;;;;;;;;;;;13.13;100.00;100533.44;5035687;28;20289;-75
2023/03/21 09:29:43;;;;;;;;;;;;;;;13.03;100.00;100543.50;5032425;28;20294;-75
2023/03/21 09:32:10;;;;;;;;;;;;;;;13.00;100.00;100537.97;5032022;28;19919;-74
2023/03/21 09:34:38;;;;;;;;;;;;;;;12.89;100.00;100535.78;5032605;28;19967;-75
2023/03/21 09:37:08;;;;;;;;;;;;;;;12.92;100.00;100548.31;5037007;28;19935;-74
2023/03/21 09:39:36;;;;;;;;;;;;;;;13.02;100.00;100538.25;5035068;28;19956;-74
2023/03/21 09:42:08;;;;;;;;;;;;;;;13.13;100.00;100542.03;5034002;28;20425;-73
2023/03/21 09:44:45;;;;;;;;;;;;;;;13.14;100.00;100540.72;5034956;28;20003;-74
2023/03/21 09:47:31;;;;;;;;;;;;;;;13.11;100.00;100536.00;5034940;28;19916;-75
2023/03/21 09:50:09;;;;;;;;;;;;;;;13.31;100.00;100537.25;5034185;28;20282;-75
2023/03/21 09:52:42;;;;;;;;;;;;;;;13.80;100.00;100539.03;5034622;28;19920;-74
2023/03/21 09:55:23;;;;;;;;;;;;;;;14.19;100.00;100533.56;5034700;28;19916;-75
2023/03/21 09:58:17;;;;;;;;;;;;;;;14.59;100.00;100530.44;5033538;28;19913;-75
2023/03/21 10:00:47;;;;;;;;;;;;;;;14.68;100.00;100538.84;5035890;28;19913;-74
2023/03/21 10:03:25;;;;;;;;;;;;;;;14.76;100.00;100530.53;5033157;28;19909;-75
2023/03/21 10:05:57;;;;;;;;;;;;;;;14.72;100.00;100538.63;5033080;28;20282;-73
2023/03/21 10:08:26;;;;;;;;;;;;;;;14.75;100.00;100531.81;5034510;28;19932;-73
2023/03/21 10:10:53;;;;;;;;;;;;;;;14.86;100.00;100525.34;5033323;28;19913;-74
2023/03/21 10:13:27;;;;;;;;;;;;;;;14.81;100.00;100529.75;5033996;28;19995;-74
2023/03/21 10:15:57;;;;;;;;;;;;;;;14.93;100.00;100521.94;5032905;28;19919;-74
2023/03/21 10:18:23;;;;;;;;;;;;;;;15.06;100.00;100523.06;5041729;28;19920;-75
2023/03/21 10:20:50;;;;;;;;;;;;;;;15.16;100.00;100529.34;5052263;28;19916;-74
2023/03/21 10:23:29;;;;;;;;;;;;;;;15.10;100.00;100535.09;5052779;28;20011;-74
2023/03/21 10:25:59;;;;;;;;;;;;;;;15.16;100.00;100535.91;5052468;28;19913;-76
2023/03/21 10:28:31;;;;;;;;;;;;;;;15.16;100.00;100524.38;5052500;28;19916;-75
2023/03/21 10:31:03;;;;;;;;;;;;;;;15.35;100.00;100530.44;5053655;28;19913;-75
2023/03/21 10:33:41;;;;;;;;;;;;;;;15.37;100.00;100498.22;5052623;28;19912;-76
2023/03/21 10:36:08;;;;;;;;;;;;;;;15.93;100.00;100519.22;5052374;28;19932;-75
2023/03/21 10:38:34;;;;;;;;;;;;;;;16.17;93.54;100533.88;5052337;28;19923;-76
2023/03/21 10:41:00;;;;;;;;;;;;;;;16.28;90.10;100541.72;5035420;28;19912;-75
2023/03/21 10:43:25;;;;;;;;;;;;;;;16.56;91.42;100536.69;5053584;28;19908;-75
2023/03/21 10:45:52;;;;;;;;;;;;;;;16.74;86.79;100535.34;5053800;28;20278;-75
2023/03/21 10:48:17;;;;;;;;;;;;;;;16.73;85.03;100533.75;5052170;28;19977;-75
2023/03/21 10:50:45;;;;;;;;;;;;;;;16.49;82.40;100532.25;5053499;28;20350;-76
2023/03/21 10:53:20;;;;;;;;;;;;;;;16.26;83.17;100539.34;5051481;28;19960;-76
2023/03/21 10:55:56;;;;;;;;;;;;;;;16.37;86.99;100542.22;5051961;28;19920;-73
2023/03/21 10:58:27;;;;;;;;;;;;;;;16.65;86.24;100545.06;5051959;28;19962;-74
2023/03/21 11:01:00;;;;;;;;;;;;;;;16.75;83.35;100536.88;5052816;28;20001;-76
2023/03/21 11:03:28;;;;;;;;;;;;;;;16.67;81.67;100545.31;5053822;28;19909;-75
2023/03/21 11:05:58;;;;;;;;;;;;;;;16.58;83.80;100536.97;5052271;28;19913;-73
2023/03/21 11:08:26;;;;;;;;;;;;;;;16.60;84.29;100528.53;5052106;28;19940;-77
2023/03/21 11:11:01;;;;;;;;;;;;;;;16.63;81.56;100530.38;5051902;28;20360;-74
2023/03/21 11:13:32;;;;;;;;;;;;;;;16.52;80.14;100530.38;5053398;28;19909;-75
2023/03/21 11:16:08;;;;;;;;;;;;;;;16.45;79.06;100530.94;5051772;28;19917;-74
2023/03/21 11:18:46;;;;;;;;;;;;;;;16.40;78.76;100528.88;5052959;28;19959;-74
2023/03/21 11:21:12;;;;;;;;;;;;;;;16.13;76.03;100537.03;5052595;28;19915;-76
2023/03/21 11:23:40;;;;;;;;;;;;;;;15.78;78.45;100533.91;5053055;28;20258;-76
2023/03/21 11:26:08;;;;;;;;;;;;;;;15.58;80.40;100523.38;5053304;28;19912;-78
2023/03/21 11:28:44;;;;;;;;;;;;;;;15.48;82.11;100524.16;5051711;28;19962;-77
2023/03/21 11:31:11;;;;;;;;;;;;;;;15.49;82.91;100511.34;5051942;28;19912;-78
2023/03/21 11:33:39;;;;;;;;;;;;;;;15.49;82.88;100519.97;5051887;28;20011;-77
2023/03/21 11:36:17;;;;;;;;;;;;;;;15.45;83.04;100514.47;5051656;28;19995;-79
2023/03/21 11:38:44;;;;;;;;;;;;;;;15.45;83.75;100511.59;5052619;28;19947;-78
2023/03/21 11:41:11;;;;;;;;;;;;;;;15.44;84.23;100510.03;5051567;28;19917;-77
2023/03/21 11:43:43;;;;;;;;;;;;;;;15.52;85.18;100508.19;5050947;28;19912;-75
2023/03/21 11:46:11;;;;;;;;;;;;;;;15.62;83.26;100508.75;5050680;28;19908;-76
2023/03/21 11:48:45;;;;;;;;;;;;;;;15.60;83.27;100512.16;5052040;28;19915;-77
2023/03/21 11:51:29;;;;;;;;;;;;;;;15.56;83.40;100505.06;5052687;28;20378;-76
2023/03/21 11:54:14;;;;;;;;;;;;;;;15.61;84.87;100502.19;5051117;28;19917;-76
2023/03/21 11:57:04;;;;;;;;;;;;;;;15.68;84.64;100503.78;5052008;28;20342;-78
2023/03/21 11:59:48;;;;;;;;;;;;;;;15.72;85.38;100497.75;5050048;28;20313;-76
2023/03/21 12:02:18;;;;;;;;;;;;;;;15.85;83.62;100495.94;5051498;28;19916;-77
2023/03/21 12:04:44;;;;;;;;;;;;;;;15.75;81.94;100502.47;5034379;28;20476;-76
2023/03/21 12:07:10;;;;;;;;;;;;;;;15.61;83.20;100495.69;5055332;28;19915;-77
2023/03/21 12:09:42;;;;;;;;;;;;;;;15.62;84.41;100492.25;5055269;28;20007;-76
2023/03/21 12:12:14;;;;;;;;;;;;;;;15.58;83.49;100494.59;5055578;28;19915;-78
2023/03/21 12:14:46;;;;;;;;;;;;;;;15.52;83.09;100490.13;5056221;28;19944;-76
2023/03/21 12:17:30;;;;;;;;;;;;;;;15.42;81.84;100480.16;5056657;28;19913;-77
2023/03/21 12:20:11;;;;;;;;;;;;;;;15.27;82.44;100486.16;5056534;28;20007;-76
2023/03/21 12:22:41;;;;;;;;;;;;;;;15.11;83.47;100472.56;5056486;28;19999;-77
2023/03/21 12:25:18;;;;;;;;;;;;;;;15.06;85.54;100468.38;5056113;28;19909;-76
2023/03/21 12:27:52;;;;;;;;;;;;;;;15.19;85.31;100462.09;5056701;28;19916;-76
2023/03/21 12:30:22;;;;;;;;;;;;;;;15.26;85.54;100468.13;5060325;28;19912;-75
2023/03/21 12:33:07;;;;;;;;;;;;;;;15.36;83.15;100465.00;5057742;28;19959;-76
2023/03/21 12:35:34;;;;;;;;;;;;;;;15.35;83.10;100466.31;5056261;28;19920;-77
2023/03/21 12:38:16;;;;;;;;;;;;;;;15.37;84.51;100458.69;5056274;28;19916;-78
2023/03/21 12:41:06;;;;;;;;;;;;;;;15.56;83.79;100451.09;5056358;28;19913;-76
2023/03/21 12:43:39;;;;;;;;;;;;;;;15.71;83.19;100450.09;5058542;28;19916;-77
2023/03/21 12:46:29;;;;;;;;;;;;;;;15.85;83.83;100458.47;5046016;28;20003;-76